sensor_id;sensor_type;location;lat;lon;timestamp;P1;durP1;ratioP1;P2;durP2;ratioP2
705;SDS011;21234;48.690;9.016;2023-02-13T00:01:20;12.43;;;9.43;;
705;SDS011;21234;48.690;9.016;2023-02-13T00:03:47;15.00;;;10.13;;
705;SDS011;21234;48.690;9.016;2023-02-13T00:06:14;14.03;;;8.70;;
705;SDS011;21234;48.690;9.016;2023-02-13T00:08:42;12.43;;;8.30;;
705;SDS011;21234;48.690;9.016;2023-02-13T00:11:08;14.90;;;10.40;;
705;SDS011;21234;48.690;9.016;2023-02-13T00:13:35;11.40;;;7.63;;
705;SDS011;21234;48.690;9.016;2023-02-13T00:16:02;10.80;;;7.77;;
705;SDS011;21234;48.690;9.016;2023-02-13T00:18:32;11.23;;;8.63;;
705;SDS011;21234;48.690;9.016;2023-02-13T00:21:02;15.10;;;8.27;;
705;SDS011;21234;48.690;9.016;2023-02-13T00:23:30;13.17;;;9.77;;
705;SDS011;21234;48.690;9.016;2023-02-13T00:26:00;12.73;;;8.63;;
705;SDS011;21234;48.690;9.016;2023-02-13T00:28:30;12.10;;;8.43;;
705;SDS011;21234;48.690;9.016;2023-02-13T00:31:01;12.60;;;9.03;;
705;SDS011;21234;48.690;9.016;2023-02-13T00:33:29;12.73;;;9.10;;
705;SDS011;21234;48.690;9.016;2023-02-13T00:36:00;9.73;;;8.17;;
705;SDS011;21234;48.690;9.016;2023-02-13T00:38:28;11.43;;;7.90;;
705;SDS011;21234;48.690;9.016;2023-02-13T00:40:55;14.47;;;9.30;;
705;SDS011;21234;48.690;9.016;2023-02-13T00:43:23;11.33;;;8.43;;
705;SDS011;21234;48.690;9.016;2023-02-13T00:45:50;12.33;;;9.67;;
705;SDS011;21234;48.690;9.016;2023-02-13T00:48:16;13.93;;;9.97;;
705;SDS011;21234;48.690;9.016;2023-02-13T00:50:43;11.33;;;8.70;;
705;SDS011;21234;48.690;9.016;2023-02-13T00:53:11;15.83;;;9.83;;
705;SDS011;21234;48.690;9.016;2023-02-13T00:55:37;14.27;;;9.60;;
705;SDS011;21234;48.690;9.016;2023-02-13T00:58:04;14.00;;;8.90;;
705;SDS011;21234;48.690;9.016;2023-02-13T01:00:32;11.40;;;9.10;;
705;SDS011;21234;48.690;9.016;2023-02-13T01:02:59;13.50;;;9.47;;
705;SDS011;21234;48.690;9.016;2023-02-13T01:05:26;13.70;;;10.37;;
705;SDS011;21234;48.690;9.016;2023-02-13T01:07:53;13.83;;;10.03;;
705;SDS011;21234;48.690;9.016;2023-02-13T01:10:19;14.27;;;9.87;;
705;SDS011;21234;48.690;9.016;2023-02-13T01:12:46;10.33;;;8.90;;
705;SDS011;21234;48.690;9.016;2023-02-13T01:15:13;14.90;;;9.97;;
705;SDS011;21234;48.690;9.016;2023-02-13T01:17:41;14.87;;;9.20;;
705;SDS011;21234;48.690;9.016;2023-02-13T01:20:09;15.37;;;10.07;;
705;SDS011;21234;48.690;9.016;2023-02-13T01:22:37;14.60;;;10.17;;
705;SDS011;21234;48.690;9.016;2023-02-13T01:25:04;14.80;;;11.00;;
705;SDS011;21234;48.690;9.016;2023-02-13T01:27:32;17.33;;;10.93;;
705;SDS011;21234;48.690;9.016;2023-02-13T01:29:59;18.50;;;9.53;;
705;SDS011;21234;48.690;9.016;2023-02-13T01:32:25;13.27;;;8.63;;
705;SDS011;21234;48.690;9.016;2023-02-13T01:34:53;17.20;;;11.27;;
705;SDS011;21234;48.690;9.016;2023-02-13T01:37:20;13.53;;;10.47;;
705;SDS011;21234;48.690;9.016;2023-02-13T01:39:47;15.90;;;11.50;;
705;SDS011;21234;48.690;9.016;2023-02-13T01:42:15;18.70;;;9.67;;
705;SDS011;21234;48.690;9.016;2023-02-13T01:44:47;18.70;;;10.90;;
705;SDS011;21234;48.690;9.016;2023-02-13T01:47:17;16.07;;;9.20;;
705;SDS011;21234;48.690;9.016;2023-02-13T01:49:50;14.80;;;9.30;;
705;SDS011;21234;48.690;9.016;2023-02-13T01:52:27;15.23;;;9.43;;
705;SDS011;21234;48.690;9.016;2023-02-13T01:54:54;15.90;;;10.03;;
705;SDS011;21234;48.690;9.016;2023-02-13T01:57:21;14.50;;;9.87;;
705;SDS011;21234;48.690;9.016;2023-02-13T01:59:52;13.13;;;9.10;;
705;SDS011;21234;48.690;9.016;2023-02-13T02:02:22;17.30;;;10.40;;
705;SDS011;21234;48.690;9.016;2023-02-13T02:04:50;13.73;;;9.50;;
705;SDS011;21234;48.690;9.016;2023-02-13T02:07:20;18.27;;;10.40;;
705;SDS011;21234;48.690;9.016;2023-02-13T02:09:50;10.70;;;9.03;;
705;SDS011;21234;48.690;9.016;2023-02-13T02:12:20;12.23;;;10.37;;
705;SDS011;21234;48.690;9.016;2023-02-13T02:14:51;12.50;;;8.93;;
705;SDS011;21234;48.690;9.016;2023-02-13T02:17:19;16.10;;;10.60;;
705;SDS011;21234;48.690;9.016;2023-02-13T02:19:48;11.57;;;8.67;;
705;SDS011;21234;48.690;9.016;2023-02-13T02:22:40;11.47;;;9.10;;
705;SDS011;21234;48.690;9.016;2023-02-13T02:25:42;13.33;;;10.47;;
705;SDS011;21234;48.690;9.016;2023-02-13T02:28:44;13.40;;;8.63;;
705;SDS011;21234;48.690;9.016;2023-02-13T02:34:31;13.47;;;10.13;;
705;SDS011;21234;48.690;9.016;2023-02-13T02:37:12;13.83;;;9.20;;
705;SDS011;21234;48.690;9.016;2023-02-13T02:39:48;16.97;;;10.70;;
705;SDS011;21234;48.690;9.016;2023-02-13T02:42:27;18.40;;;10.40;;
705;SDS011;21234;48.690;9.016;2023-02-13T02:45:14;15.57;;;9.40;;
705;SDS011;21234;48.690;9.016;2023-02-13T02:48:03;16.13;;;11.50;;
705;SDS011;21234;48.690;9.016;2023-02-13T02:50:57;15.67;;;10.20;;
705;SDS011;21234;48.690;9.016;2023-02-13T02:53:34;18.83;;;11.03;;
705;SDS011;21234;48.690;9.016;2023-02-13T02:56:07;23.73;;;11.63;;
705;SDS011;21234;48.690;9.016;2023-02-13T02:58:40;21.20;;;11.80;;
705;SDS011;21234;48.690;9.016;2023-02-13T03:01:28;16.90;;;10.77;;
705;SDS011;21234;48.690;9.016;2023-02-13T03:04:15;18.90;;;12.37;;
705;SDS011;21234;48.690;9.016;2023-02-13T03:07:04;21.60;;;10.60;;
705;SDS011;21234;48.690;9.016;2023-02-13T03:09:35;16.90;;;10.50;;
705;SDS011;21234;48.690;9.016;2023-02-13T03:12:22;14.10;;;9.60;;
705;SDS011;21234;48.690;9.016;2023-02-13T03:15:09;14.63;;;8.93;;
705;SDS011;21234;48.690;9.016;2023-02-13T03:17:36;16.33;;;10.87;;
705;SDS011;21234;48.690;9.016;2023-02-13T03:20:22;18.33;;;10.20;;
705;SDS011;21234;48.690;9.016;2023-02-13T03:23:19;16.07;;;8.97;;
705;SDS011;21234;48.690;9.016;2023-02-13T03:25:56;13.97;;;9.07;;
705;SDS011;21234;48.690;9.016;2023-02-13T03:28:33;17.57;;;10.17;;
705;SDS011;21234;48.690;9.016;2023-02-13T03:31:26;16.17;;;10.70;;
705;SDS011;21234;48.690;9.016;2023-02-13T03:33:58;14.20;;;10.10;;
705;SDS011;21234;48.690;9.016;2023-02-13T03:36:32;15.53;;;9.80;;
705;SDS011;21234;48.690;9.016;2023-02-13T03:39:30;20.17;;;10.60;;
705;SDS011;21234;48.690;9.016;2023-02-13T03:42:06;16.77;;;9.60;;
705;SDS011;21234;48.690;9.016;2023-02-13T03:44:38;17.47;;;10.67;;
705;SDS011;21234;48.690;9.016;2023-02-13T03:47:08;19.83;;;10.10;;
705;SDS011;21234;48.690;9.016;2023-02-13T03:49:37;17.73;;;10.63;;
705;SDS011;21234;48.690;9.016;2023-02-13T03:52:26;18.73;;;10.80;;
705;SDS011;21234;48.690;9.016;2023-02-13T03:55:00;12.80;;;10.47;;
705;SDS011;21234;48.690;9.016;2023-02-13T03:57:50;18.07;;;10.63;;
705;SDS011;21234;48.690;9.016;2023-02-13T04:00:37;18.57;;;11.63;;
705;SDS011;21234;48.690;9.016;2023-02-13T04:03:09;18.80;;;10.27;;
705;SDS011;21234;48.690;9.016;2023-02-13T04:05:42;17.23;;;9.93;;
705;SDS011;21234;48.690;9.016;2023-02-13T04:08:12;14.40;;;8.57;;
705;SDS011;21234;48.690;9.016;2023-02-13T04:10:42;16.97;;;9.70;;
705;SDS011;21234;48.690;9.016;2023-02-13T04:13:14;16.90;;;10.23;;
705;SDS011;21234;48.690;9.016;2023-02-13T04:15:46;17.30;;;10.57;;
705;SDS011;21234;48.690;9.016;2023-02-13T04:18:17;20.50;;;11.43;;
705;SDS011;21234;48.690;9.016;2023-02-13T04:20:48;18.13;;;10.70;;
705;SDS011;21234;48.690;9.016;2023-02-13T04:23:14;17.77;;;11.47;;
705;SDS011;21234;48.690;9.016;2023-02-13T04:25:44;18.40;;;9.70;;
705;SDS011;21234;48.690;9.016;2023-02-13T04:28:13;21.27;;;11.10;;
705;SDS011;21234;48.690;9.016;2023-02-13T04:30:40;22.40;;;11.30;;
705;SDS011;21234;48.690;9.016;2023-02-13T04:33:07;20.37;;;12.27;;
705;SDS011;21234;48.690;9.016;2023-02-13T04:35:34;21.37;;;11.30;;
705;SDS011;21234;48.690;9.016;2023-02-13T04:38:00;24.37;;;10.20;;
705;SDS011;21234;48.690;9.016;2023-02-13T04:40:28;16.00;;;9.70;;
705;SDS011;21234;48.690;9.016;2023-02-13T04:42:56;20.83;;;11.97;;
705;SDS011;21234;48.690;9.016;2023-02-13T04:45:23;16.93;;;11.40;;
705;SDS011;21234;48.690;9.016;2023-02-13T04:47:49;19.73;;;10.80;;
705;SDS011;21234;48.690;9.016;2023-02-13T04:50:17;19.10;;;11.33;;
705;SDS011;21234;48.690;9.016;2023-02-13T04:52:44;14.90;;;10.70;;
705;SDS011;21234;48.690;9.016;2023-02-13T04:55:11;18.80;;;11.47;;
705;SDS011;21234;48.690;9.016;2023-02-13T04:57:37;17.40;;;9.43;;
705;SDS011;21234;48.690;9.016;2023-02-13T05:00:06;16.60;;;9.73;;
705;SDS011;21234;48.690;9.016;2023-02-13T05:02:34;17.53;;;11.80;;
705;SDS011;21234;48.690;9.016;2023-02-13T05:05:01;19.80;;;11.17;;
705;SDS011;21234;48.690;9.016;2023-02-13T05:07:27;19.87;;;11.40;;
705;SDS011;21234;48.690;9.016;2023-02-13T05:09:54;14.80;;;11.27;;
705;SDS011;21234;48.690;9.016;2023-02-13T05:12:21;16.70;;;10.53;;
705;SDS011;21234;48.690;9.016;2023-02-13T05:14:47;16.57;;;10.47;;
705;SDS011;21234;48.690;9.016;2023-02-13T05:17:15;21.60;;;12.60;;
705;SDS011;21234;48.690;9.016;2023-02-13T05:19:42;15.73;;;11.17;;
705;SDS011;21234;48.690;9.016;2023-02-13T05:22:09;15.40;;;10.33;;
705;SDS011;21234;48.690;9.016;2023-02-13T05:24:53;15.90;;;10.83;;
705;SDS011;21234;48.690;9.016;2023-02-13T05:27:20;15.83;;;11.43;;
705;SDS011;21234;48.690;9.016;2023-02-13T05:29:47;15.97;;;10.50;;
705;SDS011;21234;48.690;9.016;2023-02-13T05:32:14;19.00;;;10.83;;
705;SDS011;21234;48.690;9.016;2023-02-13T05:34:42;22.30;;;11.67;;
705;SDS011;21234;48.690;9.016;2023-02-13T05:37:08;20.20;;;11.50;;
705;SDS011;21234;48.690;9.016;2023-02-13T05:39:35;20.07;;;11.93;;
705;SDS011;21234;48.690;9.016;2023-02-13T05:42:02;19.40;;;13.60;;
705;SDS011;21234;48.690;9.016;2023-02-13T05:44:29;22.00;;;12.30;;
705;SDS011;21234;48.690;9.016;2023-02-13T05:46:56;17.20;;;10.93;;
705;SDS011;21234;48.690;9.016;2023-02-13T05:49:24;22.40;;;12.37;;
705;SDS011;21234;48.690;9.016;2023-02-13T05:51:51;16.07;;;10.30;;
705;SDS011;21234;48.690;9.016;2023-02-13T05:54:18;16.43;;;11.17;;
705;SDS011;21234;48.690;9.016;2023-02-13T05:56:44;19.97;;;11.93;;
705;SDS011;21234;48.690;9.016;2023-02-13T05:59:12;21.80;;;12.53;;
705;SDS011;21234;48.690;9.016;2023-02-13T06:01:39;21.40;;;12.33;;
705;SDS011;21234;48.690;9.016;2023-02-13T06:04:05;14.80;;;10.60;;
705;SDS011;21234;48.690;9.016;2023-02-13T06:06:33;19.17;;;11.50;;
705;SDS011;21234;48.690;9.016;2023-02-13T06:09:00;26.17;;;13.50;;
705;SDS011;21234;48.690;9.016;2023-02-13T06:11:27;21.10;;;14.37;;
705;SDS011;21234;48.690;9.016;2023-02-13T06:13:53;24.67;;;14.50;;
705;SDS011;21234;48.690;9.016;2023-02-13T06:16:20;61.30;;;25.87;;
705;SDS011;21234;48.690;9.016;2023-02-13T06:18:47;80.17;;;36.50;;
705;SDS011;21234;48.690;9.016;2023-02-13T06:21:14;81.10;;;39.00;;
705;SDS011;21234;48.690;9.016;2023-02-13T06:23:42;73.40;;;36.50;;
705;SDS011;21234;48.690;9.016;2023-02-13T06:26:08;48.13;;;27.00;;
705;SDS011;21234;48.690;9.016;2023-02-13T06:28:35;47.23;;;24.30;;
705;SDS011;21234;48.690;9.016;2023-02-13T06:31:02;35.10;;;19.10;;
705;SDS011;21234;48.690;9.016;2023-02-13T06:33:29;34.13;;;18.53;;
705;SDS011;21234;48.690;9.016;2023-02-13T06:35:56;31.40;;;18.03;;
705;SDS011;21234;48.690;9.016;2023-02-13T06:38:22;34.53;;;19.70;;
705;SDS011;21234;48.690;9.016;2023-02-13T06:40:50;26.07;;;14.57;;
705;SDS011;21234;48.690;9.016;2023-02-13T06:43:17;25.30;;;14.80;;
705;SDS011;21234;48.690;9.016;2023-02-13T06:45:44;24.90;;;14.90;;
705;SDS011;21234;48.690;9.016;2023-02-13T06:48:12;24.40;;;13.37;;
705;SDS011;21234;48.690;9.016;2023-02-13T06:50:39;20.03;;;13.40;;
705;SDS011;21234;48.690;9.016;2023-02-13T06:53:06;27.80;;;16.50;;
705;SDS011;21234;48.690;9.016;2023-02-13T06:55:32;30.13;;;16.20;;
705;SDS011;21234;48.690;9.016;2023-02-13T06:58:01;28.00;;;17.63;;
705;SDS011;21234;48.690;9.016;2023-02-13T07:00:27;30.63;;;17.87;;
705;SDS011;21234;48.690;9.016;2023-02-13T07:02:54;38.87;;;20.17;;
705;SDS011;21234;48.690;9.016;2023-02-13T07:05:27;33.50;;;19.30;;
705;SDS011;21234;48.690;9.016;2023-02-13T07:07:54;37.50;;;19.20;;
705;SDS011;21234;48.690;9.016;2023-02-13T07:10:20;37.23;;;18.83;;
705;SDS011;21234;48.690;9.016;2023-02-13T07:12:47;32.60;;;16.60;;
705;SDS011;21234;48.690;9.016;2023-02-13T07:15:15;25.47;;;15.43;;
705;SDS011;21234;48.690;9.016;2023-02-13T07:17:42;23.23;;;14.03;;
705;SDS011;21234;48.690;9.016;2023-02-13T07:20:09;22.93;;;13.10;;
705;SDS011;21234;48.690;9.016;2023-02-13T07:22:36;25.17;;;14.23;;
705;SDS011;21234;48.690;9.016;2023-02-13T07:25:03;23.73;;;15.00;;
705;SDS011;21234;48.690;9.016;2023-02-13T07:27:30;22.53;;;13.37;;
705;SDS011;21234;48.690;9.016;2023-02-13T07:29:56;22.50;;;14.33;;
705;SDS011;21234;48.690;9.016;2023-02-13T07:32:25;26.77;;;16.23;;
705;SDS011;21234;48.690;9.016;2023-02-13T07:34:51;28.97;;;14.67;;
705;SDS011;21234;48.690;9.016;2023-02-13T07:37:18;19.63;;;12.40;;
705;SDS011;21234;48.690;9.016;2023-02-13T07:39:45;25.80;;;15.20;;
705;SDS011;21234;48.690;9.016;2023-02-13T07:42:11;20.53;;;15.70;;
705;SDS011;21234;48.690;9.016;2023-02-13T07:44:38;19.50;;;13.10;;
705;SDS011;21234;48.690;9.016;2023-02-13T07:47:04;24.80;;;13.90;;
705;SDS011;21234;48.690;9.016;2023-02-13T07:49:33;19.07;;;13.20;;
705;SDS011;21234;48.690;9.016;2023-02-13T07:52:01;20.93;;;14.20;;
705;SDS011;21234;48.690;9.016;2023-02-13T07:54:27;25.37;;;14.43;;
705;SDS011;21234;48.690;9.016;2023-02-13T07:56:54;21.37;;;13.70;;
705;SDS011;21234;48.690;9.016;2023-02-13T07:59:21;17.23;;;12.20;;
705;SDS011;21234;48.690;9.016;2023-02-13T08:01:47;20.90;;;12.87;;
705;SDS011;21234;48.690;9.016;2023-02-13T08:04:14;21.57;;;13.23;;
705;SDS011;21234;48.690;9.016;2023-02-13T08:06:42;20.47;;;12.60;;
705;SDS011;21234;48.690;9.016;2023-02-13T08:09:10;21.70;;;13.73;;
705;SDS011;21234;48.690;9.016;2023-02-13T08:12:01;21.63;;;13.13;;
705;SDS011;21234;48.690;9.016;2023-02-13T08:14:28;16.23;;;10.90;;
705;SDS011;21234;48.690;9.016;2023-02-13T08:16:54;15.93;;;10.17;;
705;SDS011;21234;48.690;9.016;2023-02-13T08:19:21;19.17;;;12.20;;
705;SDS011;21234;48.690;9.016;2023-02-13T08:21:49;14.10;;;10.47;;
705;SDS011;21234;48.690;9.016;2023-02-13T08:24:16;14.90;;;9.83;;
705;SDS011;21234;48.690;9.016;2023-02-13T08:26:43;15.00;;;10.07;;
705;SDS011;21234;48.690;9.016;2023-02-13T08:29:10;16.40;;;8.80;;
705;SDS011;21234;48.690;9.016;2023-02-13T08:31:36;12.80;;;7.47;;
705;SDS011;21234;48.690;9.016;2023-02-13T08:34:03;15.33;;;10.00;;
705;SDS011;21234;48.690;9.016;2023-02-13T08:36:30;13.30;;;8.93;;
705;SDS011;21234;48.690;9.016;2023-02-13T08:38:58;12.53;;;8.27;;
705;SDS011;21234;48.690;9.016;2023-02-13T08:41:25;14.33;;;9.17;;
705;SDS011;21234;48.690;9.016;2023-02-13T08:43:52;15.20;;;8.07;;
705;SDS011;21234;48.690;9.016;2023-02-13T08:46:19;14.67;;;8.47;;
705;SDS011;21234;48.690;9.016;2023-02-13T08:48:46;12.77;;;8.87;;
705;SDS011;21234;48.690;9.016;2023-02-13T08:51:13;11.90;;;8.30;;
705;SDS011;21234;48.690;9.016;2023-02-13T08:53:40;16.30;;;9.40;;
705;SDS011;21234;48.690;9.016;2023-02-13T08:56:08;12.37;;;10.27;;
705;SDS011;21234;48.690;9.016;2023-02-13T08:58:36;12.47;;;8.60;;
705;SDS011;21234;48.690;9.016;2023-02-13T09:01:03;16.67;;;10.00;;
705;SDS011;21234;48.690;9.016;2023-02-13T09:03:31;13.50;;;8.03;;
705;SDS011;21234;48.690;9.016;2023-02-13T09:05:58;13.23;;;9.00;;
705;SDS011;21234;48.690;9.016;2023-02-13T09:08:25;10.37;;;8.83;;
705;SDS011;21234;48.690;9.016;2023-02-13T09:10:56;13.50;;;8.07;;
705;SDS011;21234;48.690;9.016;2023-02-13T09:13:26;12.50;;;7.40;;
705;SDS011;21234;48.690;9.016;2023-02-13T09:15:56;10.37;;;7.83;;
705;SDS011;21234;48.690;9.016;2023-02-13T09:18:24;14.10;;;8.17;;
705;SDS011;21234;48.690;9.016;2023-02-13T09:20:55;12.50;;;8.23;;
705;SDS011;21234;48.690;9.016;2023-02-13T09:23:23;11.57;;;7.60;;
705;SDS011;21234;48.690;9.016;2023-02-13T09:25:49;12.60;;;7.40;;
705;SDS011;21234;48.690;9.016;2023-02-13T09:28:16;10.30;;;7.40;;
705;SDS011;21234;48.690;9.016;2023-02-13T09:30:44;10.27;;;7.10;;
705;SDS011;21234;48.690;9.016;2023-02-13T09:33:10;10.70;;;7.40;;
705;SDS011;21234;48.690;9.016;2023-02-13T09:35:37;12.57;;;8.10;;
705;SDS011;21234;48.690;9.016;2023-02-13T09:38:05;8.70;;;6.63;;
705;SDS011;21234;48.690;9.016;2023-02-13T09:40:33;9.20;;;7.30;;
705;SDS011;21234;48.690;9.016;2023-02-13T09:43:04;10.50;;;6.67;;
705;SDS011;21234;48.690;9.016;2023-02-13T09:45:33;10.30;;;7.10;;
705;SDS011;21234;48.690;9.016;2023-02-13T09:48:02;10.00;;;7.00;;
705;SDS011;21234;48.690;9.016;2023-02-13T09:50:30;10.70;;;7.37;;
705;SDS011;21234;48.690;9.016;2023-02-13T09:52:59;13.30;;;8.20;;
705;SDS011;21234;48.690;9.016;2023-02-13T09:55:28;10.20;;;7.17;;
705;SDS011;21234;48.690;9.016;2023-02-13T09:58:03;10.30;;;7.33;;
705;SDS011;21234;48.690;9.016;2023-02-13T10:00:36;12.33;;;7.80;;
705;SDS011;21234;48.690;9.016;2023-02-13T10:03:13;10.23;;;6.67;;
705;SDS011;21234;48.690;9.016;2023-02-13T10:05:51;10.67;;;7.40;;
705;SDS011;21234;48.690;9.016;2023-02-13T10:08:25;8.70;;;6.70;;
705;SDS011;21234;48.690;9.016;2023-02-13T10:11:02;10.80;;;7.53;;
705;SDS011;21234;48.690;9.016;2023-02-13T10:13:41;12.37;;;8.00;;
705;SDS011;21234;48.690;9.016;2023-02-13T10:16:16;9.00;;;6.80;;
705;SDS011;21234;48.690;9.016;2023-02-13T10:18:48;14.33;;;7.80;;
705;SDS011;21234;48.690;9.016;2023-02-13T10:21:19;11.50;;;7.33;;
705;SDS011;21234;48.690;9.016;2023-02-13T10:23:49;9.13;;;6.30;;
705;SDS011;21234;48.690;9.016;2023-02-13T10:26:21;11.60;;;7.33;;
705;SDS011;21234;48.690;9.016;2023-02-13T10:29:07;10.70;;;7.93;;
705;SDS011;21234;48.690;9.016;2023-02-13T10:31:53;10.70;;;7.07;;
705;SDS011;21234;48.690;9.016;2023-02-13T10:34:25;10.00;;;6.83;;
705;SDS011;21234;48.690;9.016;2023-02-13T10:36:56;13.53;;;8.13;;
705;SDS011;21234;48.690;9.016;2023-02-13T10:39:24;12.80;;;8.20;;
705;SDS011;21234;48.690;9.016;2023-02-13T10:41:53;10.20;;;7.33;;
705;SDS011;21234;48.690;9.016;2023-02-13T10:44:28;12.73;;;7.90;;
705;SDS011;21234;48.690;9.016;2023-02-13T10:47:09;11.23;;;8.57;;
705;SDS011;21234;48.690;9.016;2023-02-13T10:49:47;8.27;;;7.30;;
705;SDS011;21234;48.690;9.016;2023-02-13T10:52:24;7.83;;;6.40;;
705;SDS011;21234;48.690;9.016;2023-02-13T10:55:07;13.53;;;8.30;;
705;SDS011;21234;48.690;9.016;2023-02-13T10:57:51;8.10;;;6.33;;
705;SDS011;21234;48.690;9.016;2023-02-13T11:00:33;10.63;;;8.10;;
705;SDS011;21234;48.690;9.016;2023-02-13T11:03:03;9.30;;;7.23;;
705;SDS011;21234;48.690;9.016;2023-02-13T11:05:32;10.10;;;7.67;;
705;SDS011;21234;48.690;9.016;2023-02-13T11:08:02;8.53;;;6.20;;
705;SDS011;21234;48.690;9.016;2023-02-13T11:10:31;9.13;;;7.07;;
705;SDS011;21234;48.690;9.016;2023-02-13T11:12:58;9.70;;;6.73;;
705;SDS011;21234;48.690;9.016;2023-02-13T11:15:41;8.40;;;6.00;;
705;SDS011;21234;48.690;9.016;2023-02-13T11:18:11;8.37;;;6.80;;
705;SDS011;21234;48.690;9.016;2023-02-13T11:20:41;9.33;;;7.30;;
705;SDS011;21234;48.690;9.016;2023-02-13T11:23:26;9.80;;;7.53;;
705;SDS011;21234;48.690;9.016;2023-02-13T11:25:59;7.63;;;6.80;;
705;SDS011;21234;48.690;9.016;2023-02-13T11:28:28;8.07;;;6.50;;
705;SDS011;21234;48.690;9.016;2023-02-13T11:31:07;10.47;;;7.50;;
705;SDS011;21234;48.690;9.016;2023-02-13T11:33:36;10.90;;;6.80;;
705;SDS011;21234;48.690;9.016;2023-02-13T11:36:05;11.30;;;7.40;;
705;SDS011;21234;48.690;9.016;2023-02-13T11:38:34;7.70;;;6.90;;
705;SDS011;21234;48.690;9.016;2023-02-13T11:41:05;9.33;;;5.70;;
705;SDS011;21234;48.690;9.016;2023-02-13T11:43:34;6.80;;;5.90;;
705;SDS011;21234;48.690;9.016;2023-02-13T11:46:03;12.17;;;8.07;;
705;SDS011;21234;48.690;9.016;2023-02-13T11:48:32;6.73;;;5.80;;
705;SDS011;21234;48.690;9.016;2023-02-13T11:51:00;10.10;;;6.43;;
705;SDS011;21234;48.690;9.016;2023-02-13T11:53:29;9.03;;;6.20;;
705;SDS011;21234;48.690;9.016;2023-02-13T11:56:02;7.13;;;6.03;;
705;SDS011;21234;48.690;9.016;2023-02-13T11:58:31;6.97;;;5.73;;
705;SDS011;21234;48.690;9.016;2023-02-13T12:06:41;7.50;;;6.10;;
705;SDS011;21234;48.690;9.016;2023-02-13T12:09:26;6.50;;;4.57;;
705;SDS011;21234;48.690;9.016;2023-02-13T12:11:53;6.27;;;5.10;;
705;SDS011;21234;48.690;9.016;2023-02-13T12:14:23;9.23;;;6.37;;
705;SDS011;21234;48.690;9.016;2023-02-13T12:16:53;5.83;;;5.30;;
705;SDS011;21234;48.690;9.016;2023-02-13T12:19:24;5.90;;;5.23;;
705;SDS011;21234;48.690;9.016;2023-02-13T12:22:00;6.47;;;5.27;;
705;SDS011;21234;48.690;9.016;2023-02-13T12:24:40;9.00;;;6.10;;
705;SDS011;21234;48.690;9.016;2023-02-13T12:27:18;7.83;;;5.53;;
705;SDS011;21234;48.690;9.016;2023-02-13T12:30:08;8.60;;;5.90;;
705;SDS011;21234;48.690;9.016;2023-02-13T12:32:51;6.67;;;5.37;;
705;SDS011;21234;48.690;9.016;2023-02-13T12:35:27;9.53;;;6.03;;
705;SDS011;21234;48.690;9.016;2023-02-13T12:38:12;8.10;;;5.40;;
705;SDS011;21234;48.690;9.016;2023-02-13T12:40:57;6.93;;;5.20;;
705;SDS011;21234;48.690;9.016;2023-02-13T12:46:35;7.03;;;6.03;;
705;SDS011;21234;48.690;9.016;2023-02-13T12:49:14;7.20;;;5.10;;
705;SDS011;21234;48.690;9.016;2023-02-13T12:51:50;6.87;;;5.27;;
705;SDS011;21234;48.690;9.016;2023-02-13T12:54:35;6.90;;;5.90;;
705;SDS011;21234;48.690;9.016;2023-02-13T12:57:16;5.80;;;4.80;;
705;SDS011;21234;48.690;9.016;2023-02-13T12:59:55;6.30;;;5.70;;
705;SDS011;21234;48.690;9.016;2023-02-13T13:02:46;6.20;;;4.93;;
705;SDS011;21234;48.690;9.016;2023-02-13T13:05:24;5.50;;;4.63;;
705;SDS011;21234;48.690;9.016;2023-02-13T13:08:02;7.00;;;5.57;;
705;SDS011;21234;48.690;9.016;2023-02-13T13:10:46;7.73;;;4.00;;
705;SDS011;21234;48.690;9.016;2023-02-13T13:13:25;6.47;;;3.90;;
705;SDS011;21234;48.690;9.016;2023-02-13T13:16:05;5.97;;;4.73;;
705;SDS011;21234;48.690;9.016;2023-02-13T13:18:38;7.10;;;5.10;;
705;SDS011;21234;48.690;9.016;2023-02-13T13:21:21;3.93;;;3.20;;
705;SDS011;21234;48.690;9.016;2023-02-13T13:23:53;4.20;;;3.67;;
705;SDS011;21234;48.690;9.016;2023-02-13T13:26:27;4.60;;;3.90;;
705;SDS011;21234;48.690;9.016;2023-02-13T13:29:02;5.27;;;4.67;;
705;SDS011;21234;48.690;9.016;2023-02-13T13:31:33;5.00;;;4.40;;
705;SDS011;21234;48.690;9.016;2023-02-13T13:34:04;6.20;;;4.87;;
705;SDS011;21234;48.690;9.016;2023-02-13T13:36:35;5.57;;;4.80;;
705;SDS011;21234;48.690;9.016;2023-02-13T13:39:15;5.00;;;3.90;;
705;SDS011;21234;48.690;9.016;2023-02-13T13:41:54;4.67;;;4.27;;
705;SDS011;21234;48.690;9.016;2023-02-13T13:44:38;4.80;;;3.93;;
705;SDS011;21234;48.690;9.016;2023-02-13T13:47:15;4.70;;;4.23;;
705;SDS011;21234;48.690;9.016;2023-02-13T13:49:52;7.03;;;4.73;;
705;SDS011;21234;48.690;9.016;2023-02-13T13:52:22;6.40;;;4.80;;
705;SDS011;21234;48.690;9.016;2023-02-13T13:54:50;5.33;;;4.00;;
705;SDS011;21234;48.690;9.016;2023-02-13T13:57:18;6.53;;;4.73;;
705;SDS011;21234;48.690;9.016;2023-02-13T14:02:51;5.27;;;4.40;;
705;SDS011;21234;48.690;9.016;2023-02-13T14:05:59;5.60;;;4.90;;
705;SDS011;21234;48.690;9.016;2023-02-13T14:11:45;7.00;;;5.10;;
705;SDS011;21234;48.690;9.016;2023-02-13T14:17:16;8.67;;;5.33;;
705;SDS011;21234;48.690;9.016;2023-02-13T14:20:22;6.63;;;5.27;;
705;SDS011;21234;48.690;9.016;2023-02-13T14:23:04;7.00;;;4.93;;
705;SDS011;21234;48.690;9.016;2023-02-13T14:25:33;6.30;;;4.40;;
705;SDS011;21234;48.690;9.016;2023-02-13T14:28:01;9.40;;;5.10;;
705;SDS011;21234;48.690;9.016;2023-02-13T14:30:30;47.70;;;12.80;;
705;SDS011;21234;48.690;9.016;2023-02-13T14:33:02;7.97;;;6.27;;
705;SDS011;21234;48.690;9.016;2023-02-13T14:35:31;6.97;;;6.00;;
705;SDS011;21234;48.690;9.016;2023-02-13T14:38:02;8.50;;;6.03;;
705;SDS011;21234;48.690;9.016;2023-02-13T14:40:43;9.30;;;5.90;;
705;SDS011;21234;48.690;9.016;2023-02-13T14:43:26;10.30;;;5.97;;
705;SDS011;21234;48.690;9.016;2023-02-13T14:45:57;6.17;;;5.53;;
705;SDS011;21234;48.690;9.016;2023-02-13T14:48:36;8.13;;;6.10;;
705;SDS011;21234;48.690;9.016;2023-02-13T14:51:11;7.40;;;5.70;;
705;SDS011;21234;48.690;9.016;2023-02-13T14:53:45;7.63;;;6.80;;
705;SDS011;21234;48.690;9.016;2023-02-13T14:56:17;8.20;;;5.83;;
705;SDS011;21234;48.690;9.016;2023-02-13T14:58:47;8.87;;;7.73;;
705;SDS011;21234;48.690;9.016;2023-02-13T15:01:24;6.80;;;6.10;;
705;SDS011;21234;48.690;9.016;2023-02-13T15:03:58;6.90;;;6.20;;
705;SDS011;21234;48.690;9.016;2023-02-13T15:06:32;6.83;;;6.07;;
705;SDS011;21234;48.690;9.016;2023-02-13T15:09:04;10.30;;;8.27;;
705;SDS011;21234;48.690;9.016;2023-02-13T15:11:42;11.10;;;7.30;;
705;SDS011;21234;48.690;9.016;2023-02-13T15:14:20;6.83;;;6.23;;
705;SDS011;21234;48.690;9.016;2023-02-13T15:16:56;7.67;;;5.97;;
705;SDS011;21234;48.690;9.016;2023-02-13T15:19:31;9.97;;;7.73;;
705;SDS011;21234;48.690;9.016;2023-02-13T15:22:01;10.50;;;8.37;;
705;SDS011;21234;48.690;9.016;2023-02-13T15:24:34;11.13;;;8.53;;
705;SDS011;21234;48.690;9.016;2023-02-13T15:27:05;13.30;;;11.13;;
705;SDS011;21234;48.690;9.016;2023-02-13T15:29:33;10.53;;;9.13;;
705;SDS011;21234;48.690;9.016;2023-02-13T15:32:02;10.20;;;8.57;;
705;SDS011;21234;48.690;9.016;2023-02-13T15:34:47;11.97;;;8.70;;
705;SDS011;21234;48.690;9.016;2023-02-13T15:37:19;9.70;;;8.70;;
705;SDS011;21234;48.690;9.016;2023-02-13T15:39:47;15.00;;;9.63;;
705;SDS011;21234;48.690;9.016;2023-02-13T15:42:13;17.00;;;12.77;;
705;SDS011;21234;48.690;9.016;2023-02-13T15:44:40;13.73;;;11.00;;
705;SDS011;21234;48.690;9.016;2023-02-13T15:47:14;16.40;;;11.17;;
705;SDS011;21234;48.690;9.016;2023-02-13T15:49:44;18.80;;;15.67;;